This is the latest recevied weather packets stored in our database for station/object OK6FS-6. If no packets are shown the sender has not sent any weather packets the latest 10 day(s).
| Time | Temp. | Humidity | Pressure | Rain* | Wind** | Luminosity | Snow |
|---|---|---|---|---|---|---|---|
| 1778205989 | 13.33° C | 74% | 1018.5 hPa | - | - | - | - |
| 1778202397 | 15° C | 68% | 1018.2 hPa | - | - | - | - |
| 1778198804 | 16.11° C | 65% | 1018.1 hPa | - | - | - | - |
| 1778198071 | 16.11° C | 66% | 1018 hPa | - | - | - | - |
| 1778196642 | 16.11° C | 68% | 1018 hPa | - | - | - | - |
| 1778191595 | 17.22° C | 66% | 1017.4 hPa | - | - | - | - |
| 1778185106 | 17.22° C | 75% | 1016.5 hPa | - | - | - | - |
| 1778183679 | 17.78° C | 71% | 1016.2 hPa | - | - | - | - |
| 1778177948 | 18.33° C | 65% | 1015.4 hPa | - | - | - | - |
| 1778176490 | 18.33° C | 64% | 1015.1 hPa | - | - | - | - |
| 1778175753 | 18.33° C | 61% | 1014.9 hPa | - | - | - | - |
| 1778172870 | 21.11° C | 46% | 1014.3 hPa | - | - | - | - |
| 1778170731 | 23.33° C | 41% | 1013.8 hPa | - | - | - | - |
| 1778167137 | 24.44° C | 39% | 1013.8 hPa | - | - | - | - |
| 1778164979 | 23.89° C | 42% | 1013.7 hPa | - | - | - | - |
| 1778159204 | 24.44° C | 41% | 1014.1 hPa | - | - | - | - |
| 1778155609 | 23.89° C | 40% | 1014.6 hPa | - | - | - | - |
| 1778154866 | 24.44° C | 40% | 1014.6 hPa | - | - | - | - |
| 1778153424 | 24.44° C | 38% | 1014.9 hPa | - | - | - | - |
| 1778149823 | 21.67° C | 45% | 1015.4 hPa | - | - | - | - |
| 1778141910 | 19.44° C | 54% | 1014.5 hPa | - | - | - | - |
| 1778140470 | 20° C | 53% | 1014.3 hPa | - | - | - | - |
| 1778137591 | 17.22° C | 64% | 1014.3 hPa | - | - | - | - |
| 1778136166 | 16.67° C | 69% | 1014.3 hPa | - | - | - | - |
| 1778133997 | 16.67° C | 68% | 1013.9 hPa | - | - | - | - |
* Rain since midnight (hover to see other rain measurements)
** Current wind speed in m/s (hover to see current wind gust speed)